createdAt,value
2022-08-12T00:01:26.951Z,51.05
2022-08-12T00:04:34.828Z,51.90
2022-08-12T00:07:20.517Z,51.67
2022-08-12T00:10:06.925Z,51.82
2022-08-12T00:12:54.515Z,52.21
2022-08-12T00:15:40.845Z,52.36
2022-08-12T00:18:26.307Z,51.78
2022-08-12T00:21:13.944Z,51.55
2022-08-12T00:24:01.221Z,52.26
2022-08-12T00:26:49.539Z,52.38
2022-08-12T00:29:37.813Z,52.77
2022-08-12T00:32:35.414Z,52.25
2022-08-12T00:35:26.023Z,52.23
2022-08-12T00:38:23.337Z,51.97
2022-08-12T00:41:09.329Z,52.15
2022-08-12T00:43:39.158Z,51.88
2022-08-12T00:46:24.443Z,52.23
2022-08-12T00:48:52.223Z,52.45
2022-08-12T00:51:20.379Z,52.18
2022-08-12T00:53:47.707Z,52.08
2022-08-12T00:56:16.025Z,51.80
2022-08-12T00:58:52.515Z,52.50
2022-08-12T01:01:20.587Z,52.72
2022-08-12T01:04:16.395Z,52.70
2022-08-12T01:07:05.418Z,52.64
2022-08-12T01:09:50.678Z,51.66
2022-08-12T01:12:18.818Z,50.95
2022-08-12T01:14:48.397Z,51.48
2022-08-12T01:17:15.333Z,51.14
2022-08-12T01:19:42.388Z,50.77
2022-08-12T01:22:26.619Z,51.20
2022-08-12T01:25:00.087Z,51.29
2022-08-12T01:27:33.295Z,51.03
2022-08-12T01:30:10.291Z,50.97
2022-08-12T01:32:41.947Z,51.79
2022-08-12T01:35:18.534Z,52.08
2022-08-12T01:38:00.808Z,51.76
2022-08-12T01:40:37.907Z,52.50
2022-08-12T01:43:14.071Z,52.36
2022-08-12T01:46:07.721Z,52.34
2022-08-12T01:49:03.098Z,53.29
2022-08-12T01:52:21.099Z,53.15
2022-08-12T01:54:42.025Z,52.83
2022-08-12T01:57:58.167Z,52.93
2022-08-12T02:00:15.375Z,52.66
2022-08-12T02:03:19.988Z,53.70
2022-08-12T02:06:13.045Z,53.21
2022-08-12T02:09:08.881Z,54.00
2022-08-12T02:11:51.417Z,53.95
2022-08-12T02:14:20.709Z,53.68
2022-08-12T02:16:51.056Z,53.50
2022-08-12T02:20:00.466Z,54.75
2022-08-12T02:22:39.823Z,54.70
2022-08-12T02:25:44.020Z,54.40
2022-08-12T02:28:11.738Z,54.34
2022-08-12T02:30:42.703Z,53.74
2022-08-12T02:33:12.200Z,53.46
2022-08-12T02:35:43.748Z,53.46
2022-08-12T02:38:12.619Z,53.35
2022-08-12T02:40:43.052Z,53.95
2022-08-12T02:43:56.074Z,53.79
2022-08-12T02:46:37.744Z,54.16
2022-08-12T02:49:11.848Z,54.29
2022-08-12T02:51:42.601Z,54.19
2022-08-12T02:54:13.002Z,53.45
2022-08-12T02:56:50.588Z,53.96
2022-08-12T02:59:27.144Z,54.31
2022-08-12T03:02:04.379Z,54.37
2022-08-12T03:04:56.718Z,54.82
2022-08-12T03:07:45.905Z,55.35
2022-08-12T03:10:34.681Z,55.28
2022-08-12T03:13:07.554Z,55.29
2022-08-12T03:15:37.667Z,55.50
2022-08-12T03:18:35.065Z,55.63
2022-08-12T03:21:02.767Z,56.15
2022-08-12T03:23:32.307Z,56.21
2022-08-12T03:26:03.535Z,55.94
2022-08-12T03:28:54.118Z,55.99
2022-08-12T03:31:33.698Z,56.00
2022-08-12T03:34:07.337Z,56.48
2022-08-12T03:36:42.347Z,56.59
2022-08-12T03:39:17.147Z,56.43
2022-08-12T03:42:06.139Z,56.91
2022-08-12T03:45:29.792Z,58.50
2022-08-12T03:48:29.864Z,58.15
2022-08-12T03:51:17.749Z,58.08
2022-08-12T03:54:05.048Z,57.81
2022-08-12T03:56:54.733Z,57.90
2022-08-12T03:59:40.064Z,57.54
2022-08-12T04:02:08.140Z,57.54
2022-08-12T04:04:35.732Z,57.65
2022-08-12T04:07:11.591Z,57.72
2022-08-12T04:09:42.424Z,56.96
2022-08-12T04:12:32.254Z,57.85
2022-08-12T04:15:01.081Z,57.37
2022-08-12T04:17:31.592Z,57.60
2022-08-12T04:19:59.575Z,58.36
2022-08-12T04:22:29.868Z,58.35
2022-08-12T04:25:01.613Z,56.68
2022-08-12T04:27:32.608Z,56.66
2022-08-12T04:30:16.339Z,57.49
2022-08-12T04:32:51.029Z,57.44
2022-08-12T04:35:19.063Z,57.28
2022-08-12T04:37:58.363Z,56.53
2022-08-12T04:40:31.813Z,55.78
2022-08-12T04:43:05.506Z,55.37
2022-08-12T04:45:34.591Z,55.17
2022-08-12T04:48:04.109Z,55.34
2022-08-12T04:50:34.959Z,55.67
2022-08-12T04:53:09.159Z,56.13
2022-08-12T04:55:39.016Z,55.87
2022-08-12T04:58:08.853Z,56.11
2022-08-12T05:00:42.044Z,56.25
2022-08-12T05:03:09.170Z,55.70
2022-08-12T05:05:37.955Z,56.46
2022-08-12T05:08:11.113Z,55.77
2022-08-12T05:10:40.239Z,54.90
2022-08-12T05:13:19.244Z,54.86
2022-08-12T05:16:02.547Z,55.68
2022-08-12T05:18:39.769Z,54.64
2022-08-12T05:21:08.084Z,54.95
2022-08-12T05:23:38.546Z,54.82
2022-08-12T05:26:08.018Z,54.69
2022-08-12T05:28:35.332Z,54.98
2022-08-12T05:31:02.673Z,54.33
2022-08-12T05:33:40.171Z,54.62
2022-08-12T05:36:13.951Z,54.16
2022-08-12T05:38:58.857Z,53.68
2022-08-12T05:41:33.129Z,53.86
2022-08-12T05:44:06.100Z,53.15
2022-08-12T05:46:36.649Z,52.84
2022-08-12T05:49:05.694Z,52.54
2022-08-12T05:51:40.739Z,52.41
2022-08-12T05:54:16.505Z,51.46
2022-08-12T05:56:45.683Z,51.75
2022-08-12T05:59:17.158Z,51.97
2022-08-12T06:02:10.591Z,51.56
2022-08-12T06:04:36.453Z,51.36
2022-08-12T06:07:59.486Z,51.02
2022-08-12T06:09:53.899Z,50.96
2022-08-12T06:12:23.393Z,51.45
2022-08-12T06:14:55.075Z,50.60
2022-08-12T06:17:22.817Z,50.77
2022-08-12T06:20:27.181Z,50.62
2022-08-12T06:22:39.738Z,50.78
2022-08-12T06:25:10.295Z,50.15
2022-08-12T06:28:06.407Z,49.68
2022-08-12T06:30:39.633Z,49.08
2022-08-12T06:33:22.307Z,48.88
2022-08-12T06:35:53.919Z,48.21
2022-08-12T06:38:30.552Z,48.74
2022-08-12T06:41:19.403Z,47.86
2022-08-12T06:44:07.160Z,47.91
2022-08-12T06:46:38.736Z,48.05
2022-08-12T06:49:13.197Z,48.75
2022-08-12T06:51:40.357Z,47.60
2022-08-12T06:54:14.173Z,46.76
2022-08-12T06:58:05.938Z,46.66
2022-08-12T06:59:47.428Z,46.43
2022-08-12T07:02:21.058Z,46.49
2022-08-12T07:04:50.457Z,46.66
2022-08-12T07:07:18.430Z,46.01
2022-08-12T07:10:01.421Z,45.50
2022-08-12T07:12:35.961Z,45.71
2022-08-12T07:15:05.290Z,44.61
2022-08-12T07:17:38.005Z,43.56
2022-08-12T07:20:35.805Z,44.40
2022-08-12T07:23:02.067Z,43.17
2022-08-12T07:25:40.699Z,43.68
2022-08-12T07:28:17.226Z,44.42
2022-08-12T07:30:49.138Z,43.82
2022-08-12T07:33:17.787Z,43.13
2022-08-12T07:35:47.702Z,42.45
2022-08-12T07:38:37.186Z,41.71
2022-08-12T07:41:21.068Z,41.22
2022-08-12T07:43:48.860Z,40.71
2022-08-12T07:46:21.758Z,40.13
2022-08-12T07:48:58.490Z,40.38
2022-08-12T07:51:26.667Z,40.51
2022-08-12T07:54:01.017Z,40.38
2022-08-12T07:56:31.710Z,40.22
2022-08-12T07:59:01.024Z,40.18
2022-08-12T08:01:28.679Z,39.31
2022-08-12T08:04:18.685Z,38.75
2022-08-12T08:06:49.197Z,38.15
2022-08-12T08:09:21.168Z,37.96
2022-08-12T08:12:06.817Z,37.74
2022-08-12T08:14:36.916Z,35.94
2022-08-12T08:17:06.489Z,35.33
2022-08-12T08:19:48.542Z,35.24
2022-08-12T08:22:40.999Z,34.75
2022-08-12T08:25:20.438Z,34.59
2022-08-12T08:28:07.221Z,33.23
2022-08-12T08:30:42.964Z,33.00
2022-08-12T08:33:24.838Z,33.25
2022-08-12T08:36:04.557Z,30.64
2022-08-12T08:38:35.437Z,31.03
2022-08-12T08:42:19.186Z,31.98
2022-08-12T08:44:12.116Z,31.38
2022-08-12T08:46:45.014Z,30.86
2022-08-12T08:49:16.725Z,30.31
2022-08-12T08:51:47.838Z,30.54
2022-08-12T08:54:15.497Z,30.43
2022-08-12T08:56:50.274Z,30.09
2022-08-12T08:59:21.986Z,29.20
2022-08-12T09:01:49.108Z,29.56
2022-08-12T09:05:08.115Z,29.64
2022-08-12T09:07:16.792Z,29.55
2022-08-12T09:10:02.061Z,28.06
2022-08-12T09:15:43.823Z,28.08
2022-08-12T09:21:14.040Z,27.58
2022-08-12T09:23:59.706Z,27.56
2022-08-12T09:26:32.099Z,25.90
2022-08-12T09:29:12.404Z,27.59
2022-08-12T09:32:04.382Z,26.32
2022-08-12T09:34:36.036Z,26.51
2022-08-12T09:37:19.539Z,25.51
2022-08-12T09:40:03.107Z,25.31
2022-08-12T09:43:17.559Z,24.89
2022-08-12T09:46:07.104Z,25.50
2022-08-12T09:48:36.733Z,25.91
2022-08-12T09:51:10.764Z,25.58
2022-08-12T09:53:45.621Z,25.64
2022-08-12T09:56:57.082Z,24.94
2022-08-12T09:59:08.055Z,25.17
2022-08-12T10:02:41.839Z,25.36
2022-08-12T10:04:23.665Z,24.84
2022-08-12T10:06:55.432Z,24.65
2022-08-12T10:09:28.821Z,24.29
2022-08-12T10:12:43.050Z,24.22
2022-08-12T10:16:01.619Z,24.07
2022-08-12T10:18:07.916Z,24.04
2022-08-12T10:20:35.029Z,23.16
2022-08-12T10:23:01.995Z,23.67
2022-08-12T10:26:35.281Z,23.46
2022-08-12T10:29:02.797Z,23.81
2022-08-12T10:32:15.654Z,24.09
2022-08-12T10:34:26.629Z,24.36
2022-08-12T10:37:10.464Z,23.83
2022-08-12T10:40:07.052Z,23.13
2022-08-12T10:43:01.421Z,23.63
2022-08-12T10:45:30.381Z,24.39
2022-08-12T10:48:20.515Z,23.99
2022-08-12T10:51:01.917Z,24.06
2022-08-12T10:53:46.040Z,23.85
2022-08-12T10:56:18.095Z,23.60
2022-08-12T10:58:48.365Z,24.09
2022-08-12T11:01:49.139Z,24.25
2022-08-12T11:04:34.333Z,23.82
2022-08-12T11:08:35.193Z,23.80
2022-08-12T11:10:00.305Z,22.66
2022-08-12T11:12:56.421Z,22.15
2022-08-12T11:15:33.187Z,22.36
2022-08-12T11:18:11.658Z,22.73
2022-08-12T11:20:39.678Z,22.68
2022-08-12T11:23:25.972Z,22.04
2022-08-12T11:25:58.080Z,21.63
2022-08-12T11:28:33.467Z,22.36
2022-08-12T11:31:03.097Z,20.80
2022-08-12T11:34:04.320Z,20.82
2022-08-12T11:36:22.023Z,20.64
2022-08-12T11:38:52.280Z,20.83
2022-08-12T11:41:28.188Z,21.59
2022-08-12T11:44:35.837Z,21.58
2022-08-12T11:46:51.383Z,21.94
2022-08-12T11:49:31.319Z,21.91
2022-08-12T11:52:04.197Z,21.43
2022-08-12T11:54:50.866Z,20.68
2022-08-12T11:58:07.517Z,19.91
2022-08-12T12:02:04.516Z,20.44
2022-08-12T12:02:57.866Z,20.13
2022-08-12T12:05:28.549Z,21.17
2022-08-12T12:08:41.400Z,21.42
2022-08-12T12:10:57.277Z,21.34
2022-08-12T12:14:08.918Z,20.85
2022-08-12T12:16:15.952Z,21.53
2022-08-12T12:18:42.825Z,21.04
2022-08-12T12:21:09.717Z,20.77
2022-08-12T12:23:39.631Z,20.10
2022-08-12T12:26:34.982Z,20.63
2022-08-12T12:29:07.846Z,19.47
2022-08-12T12:32:06.908Z,19.07
2022-08-12T12:34:41.603Z,18.18
2022-08-12T12:38:04.740Z,18.57
2022-08-12T12:40:19.494Z,18.67
2022-08-12T12:42:55.665Z,17.95
2022-08-12T12:45:27.678Z,18.56
2022-08-12T12:48:04.357Z,19.36
2022-08-12T12:50:45.522Z,19.74
2022-08-12T12:54:08.311Z,19.84
2022-08-12T12:56:40.378Z,19.63
2022-08-12T12:59:56.723Z,18.96
2022-08-12T13:02:02.022Z,18.91
2022-08-12T13:04:38.014Z,19.19
2022-08-12T13:07:06.762Z,19.56
2022-08-12T13:09:37.002Z,19.67
2022-08-12T13:12:09.078Z,19.84
2022-08-12T13:14:39.678Z,19.38
2022-08-12T13:17:14.782Z,19.61
2022-08-12T13:19:49.981Z,19.29
2022-08-12T13:22:21.015Z,20.03
2022-08-12T13:24:57.018Z,20.78
2022-08-12T13:27:35.194Z,21.09
2022-08-12T13:30:31.680Z,20.56
2022-08-12T13:32:58.800Z,20.20
2022-08-12T13:35:33.299Z,21.28
2022-08-12T13:38:35.248Z,21.46
2022-08-12T13:41:03.798Z,20.85
2022-08-12T13:43:40.493Z,20.94
2022-08-12T13:46:12.109Z,21.70
2022-08-12T13:48:45.062Z,22.19
2022-08-12T13:51:14.076Z,21.04
2022-08-12T13:53:57.655Z,20.37
2022-08-12T13:56:34.882Z,20.41
2022-08-12T13:59:08.778Z,19.86
2022-08-12T14:01:40.509Z,19.68
2022-08-12T14:04:11.895Z,20.13
2022-08-12T14:06:44.893Z,20.25
2022-08-12T14:09:17.998Z,20.20
2022-08-12T14:11:58.877Z,20.42
2022-08-12T14:14:31.756Z,19.87
2022-08-12T14:17:09.852Z,20.12
2022-08-12T14:19:45.158Z,19.26
2022-08-12T14:22:26.020Z,19.51
2022-08-12T14:24:53.413Z,18.77
2022-08-12T14:28:02.731Z,19.31
2022-08-12T14:30:15.604Z,19.12
2022-08-12T14:32:45.308Z,19.27
2022-08-12T14:35:14.849Z,19.28
2022-08-12T14:37:55.280Z,19.27
2022-08-12T14:40:28.672Z,19.86
2022-08-12T14:42:59.177Z,19.78
2022-08-12T14:45:44.772Z,20.50
2022-08-12T14:48:19.618Z,20.83
2022-08-12T14:51:02.777Z,20.99
2022-08-12T14:59:57.420Z,21.61
2022-08-12T15:02:25.889Z,21.62
2022-08-12T15:05:03.528Z,21.15
2022-08-12T15:07:48.803Z,21.29
2022-08-12T15:10:31.795Z,22.07
2022-08-12T15:13:07.329Z,21.96
2022-08-12T15:15:45.426Z,21.52
2022-08-12T15:18:21.575Z,22.38
2022-08-12T15:20:54.580Z,22.27
2022-08-12T15:23:23.715Z,23.14
2022-08-12T15:26:02.949Z,23.25
2022-08-12T15:28:35.375Z,23.38
2022-08-12T15:31:27.526Z,23.34
2022-08-12T15:33:59.679Z,23.54
2022-08-12T15:36:54.143Z,23.14
2022-08-12T15:39:16.542Z,22.73
2022-08-12T15:41:50.760Z,22.24
2022-08-12T15:44:41.767Z,22.28
2022-08-12T15:47:09.741Z,22.34
2022-08-12T15:49:43.095Z,21.79
2022-08-12T15:52:30.216Z,21.81
2022-08-12T15:55:05.932Z,22.44
2022-08-12T15:57:40.051Z,21.83
2022-08-12T16:00:22.461Z,22.07
2022-08-12T16:03:05.794Z,21.47
2022-08-12T16:06:19.065Z,21.86
2022-08-12T16:08:35.758Z,22.31
2022-08-12T16:11:07.049Z,22.47
2022-08-12T16:13:44.325Z,22.05
2022-08-12T16:16:12.501Z,22.28
2022-08-12T16:18:56.450Z,21.97
2022-08-12T16:21:50.526Z,21.65
2022-08-12T16:24:15.575Z,22.05
2022-08-12T16:26:45.305Z,22.17
2022-08-12T16:29:53.530Z,22.39
2022-08-12T16:32:23.098Z,22.18
2022-08-12T16:34:57.496Z,22.35
2022-08-12T16:37:32.839Z,22.27
2022-08-12T16:40:13.504Z,21.94
2022-08-12T16:42:53.377Z,21.62
2022-08-12T16:45:24.486Z,22.07
2022-08-12T16:48:34.714Z,22.17
2022-08-12T16:51:05.987Z,22.31
2022-08-12T16:53:44.605Z,22.62
2022-08-12T16:56:17.369Z,22.82
2022-08-12T16:58:44.807Z,23.11
2022-08-12T17:01:16.366Z,22.78
2022-08-12T17:04:04.475Z,23.12
2022-08-12T17:06:43.114Z,23.21
2022-08-12T17:09:18.038Z,23.24
2022-08-12T17:11:50.241Z,23.63
2022-08-12T17:14:23.144Z,23.92
2022-08-12T17:16:54.851Z,23.94
2022-08-12T17:20:29.000Z,23.73
2022-08-12T17:22:16.825Z,24.04
2022-08-12T17:24:55.347Z,23.92
2022-08-12T17:27:25.490Z,23.89
2022-08-12T17:30:02.034Z,23.87
2022-08-12T17:32:31.395Z,24.48
2022-08-12T17:35:18.672Z,24.03
2022-08-12T17:37:48.474Z,24.72
2022-08-12T17:40:34.868Z,24.79
2022-08-12T17:43:55.734Z,24.53
2022-08-12T17:45:59.014Z,24.66
2022-08-12T17:48:34.781Z,24.70
2022-08-12T17:51:15.717Z,25.12
2022-08-12T17:54:06.116Z,24.82
2022-08-12T17:56:36.892Z,25.17
2022-08-12T17:59:04.454Z,24.95
2022-08-12T18:01:35.937Z,25.83
2022-08-12T18:04:21.495Z,25.65
2022-08-12T18:06:55.850Z,25.89
2022-08-12T18:09:32.338Z,26.11
2022-08-12T18:12:24.502Z,26.49
2022-08-12T18:15:08.834Z,26.47
2022-08-12T18:17:46.883Z,26.17
2022-08-12T18:20:18.157Z,26.44
2022-08-12T18:22:55.662Z,26.44
2022-08-12T18:26:13.987Z,26.76
2022-08-12T18:28:43.018Z,26.74
2022-08-12T18:31:18.772Z,26.90
2022-08-12T18:33:48.089Z,26.88
2022-08-12T18:36:22.271Z,26.90
2022-08-12T18:38:56.060Z,26.76
2022-08-12T18:41:35.981Z,27.21
2022-08-12T18:44:12.319Z,27.26
2022-08-12T18:46:53.995Z,26.92
2022-08-12T18:49:39.726Z,27.39
2022-08-12T18:52:11.713Z,27.39
2022-08-12T18:54:49.528Z,28.39
2022-08-12T18:58:07.655Z,28.03
2022-08-12T19:00:22.529Z,28.46
2022-08-12T19:02:54.738Z,29.44
2022-08-12T19:05:52.980Z,29.43
2022-08-12T19:08:13.305Z,28.98
2022-08-12T19:10:50.267Z,28.94
2022-08-12T19:13:39.237Z,30.18
2022-08-12T19:16:12.341Z,30.05
2022-08-12T19:18:45.819Z,30.30
2022-08-12T19:21:20.102Z,30.72
2022-08-12T19:24:08.309Z,30.85
2022-08-12T19:26:36.417Z,31.10
2022-08-12T19:29:08.402Z,31.35
2022-08-12T19:31:55.517Z,31.49
2022-08-12T19:37:38.789Z,31.38
2022-08-12T19:40:32.916Z,31.62
2022-08-12T19:43:19.613Z,31.87
2022-08-12T19:45:56.737Z,32.94
2022-08-12T19:48:30.725Z,33.20
2022-08-12T19:51:09.378Z,33.83
2022-08-12T19:53:57.957Z,34.05
2022-08-12T19:56:29.474Z,34.18
2022-08-12T19:59:18.649Z,34.98
2022-08-12T20:02:02.625Z,35.43
2022-08-12T20:04:38.906Z,35.60
2022-08-12T20:07:23.156Z,35.58
2022-08-12T20:09:54.231Z,35.94
2022-08-12T20:12:31.897Z,36.30
2022-08-12T20:15:03.254Z,36.99
2022-08-12T20:17:35.967Z,37.28
2022-08-12T20:20:19.015Z,37.52
2022-08-12T20:22:48.291Z,37.63
2022-08-12T20:25:18.225Z,38.16
2022-08-12T20:28:04.826Z,38.33
2022-08-12T20:30:52.333Z,38.85
2022-08-12T20:33:50.944Z,38.93
2022-08-12T20:36:41.095Z,39.57
2022-08-12T20:39:34.129Z,39.06
2022-08-12T20:41:58.618Z,39.55
2022-08-12T20:44:32.284Z,40.71
2022-08-12T20:47:18.502Z,39.90
2022-08-12T20:49:54.799Z,39.72
2022-08-12T20:52:22.553Z,39.70
2022-08-12T20:54:52.078Z,39.32
2022-08-12T20:57:24.754Z,39.04
2022-08-12T21:00:16.112Z,39.69
2022-08-12T21:02:47.130Z,39.61
2022-08-12T21:06:09.388Z,40.02
2022-08-12T21:08:27.283Z,40.18
2022-08-12T21:10:59.206Z,40.09
2022-08-12T21:13:29.471Z,40.19
2022-08-12T21:16:09.788Z,40.13
2022-08-12T21:18:38.030Z,40.36
2022-08-12T21:21:24.018Z,40.58
2022-08-12T21:23:56.364Z,41.36
2022-08-12T21:26:27.603Z,40.60
2022-08-12T21:29:01.327Z,41.06
2022-08-12T21:32:47.300Z,40.73
2022-08-12T21:34:25.980Z,41.00
2022-08-12T21:36:56.780Z,40.51
2022-08-12T21:39:35.325Z,40.80
2022-08-12T21:42:09.850Z,41.26
2022-08-12T21:45:46.022Z,41.46
2022-08-12T21:47:26.021Z,41.83
2022-08-12T21:50:02.935Z,41.58
2022-08-12T21:52:41.005Z,42.54
2022-08-12T21:55:17.891Z,42.03
2022-08-12T21:57:50.786Z,42.18
2022-08-12T22:00:32.552Z,42.39
2022-08-12T22:04:01.239Z,42.14
2022-08-12T22:06:31.285Z,42.68
2022-08-12T22:09:17.232Z,43.60
2022-08-12T22:11:58.719Z,43.23
2022-08-12T22:14:28.849Z,42.96
2022-08-12T22:16:57.914Z,43.47
2022-08-12T22:19:27.301Z,43.60
2022-08-12T22:22:04.135Z,44.08
2022-08-12T22:24:34.231Z,44.16
2022-08-12T22:27:17.960Z,45.02
2022-08-12T22:30:17.753Z,45.49
2022-08-12T22:32:50.740Z,45.94
2022-08-12T22:35:55.616Z,46.01
2022-08-12T22:38:33.452Z,46.01
2022-08-12T22:41:26.175Z,46.51
2022-08-12T22:44:11.540Z,46.91
2022-08-12T22:46:38.618Z,47.04
2022-08-12T22:49:10.009Z,47.54
2022-08-12T22:51:57.473Z,47.76
2022-08-12T22:54:36.168Z,48.39
2022-08-12T22:57:12.383Z,48.23
2022-08-12T22:59:55.104Z,48.82
2022-08-12T23:02:30.772Z,49.37
2022-08-12T23:04:58.562Z,49.87
2022-08-12T23:07:27.941Z,49.34
2022-08-12T23:10:08.582Z,49.79
2022-08-12T23:13:00.337Z,49.67
2022-08-12T23:15:35.135Z,50.13
2022-08-12T23:18:02.672Z,50.38
2022-08-12T23:20:36.587Z,50.16
2022-08-12T23:23:09.451Z,50.39
2022-08-12T23:25:54.412Z,49.92
2022-08-12T23:28:42.336Z,50.01
2022-08-12T23:31:12.004Z,49.91
2022-08-12T23:33:59.988Z,50.22
2022-08-12T23:36:31.724Z,51.40
2022-08-12T23:40:06.477Z,51.64
2022-08-12T23:42:17.880Z,50.96
2022-08-12T23:44:52.259Z,51.32
2022-08-12T23:47:21.694Z,50.57
2022-08-12T23:49:58.577Z,51.06
2022-08-12T23:52:33.930Z,51.48
2022-08-12T23:55:25.037Z,51.09
2022-08-12T23:58:20.990Z,51.04
